sensor_id;sensor_type;location;lat;lon;timestamp;temperature;humidity
17619;DHT22;8928;51.678;6.074;2024-02-23T11:17:23;7.60;99.90
17619;DHT22;8928;51.678;6.074;2024-02-23T11:20:14;7.50;99.90
17619;DHT22;8928;51.678;6.074;2024-02-23T11:23:02;7.60;99.90
17619;DHT22;8928;51.678;6.074;2024-02-23T11:26:04;7.60;99.90
17619;DHT22;8928;51.678;6.074;2024-02-23T11:28:52;7.60;99.90
17619;DHT22;8928;51.678;6.074;2024-02-23T11:31:44;7.70;99.90
17619;DHT22;8928;51.678;6.074;2024-02-23T11:34:34;7.70;99.90
17619;DHT22;8928;51.678;6.074;2024-02-23T11:37:22;7.70;99.90
17619;DHT22;8928;51.678;6.074;2024-02-23T11:40:10;7.70;99.90
17619;DHT22;8928;51.678;6.074;2024-02-23T11:42:59;7.60;99.90
17619;DHT22;8928;51.678;6.074;2024-02-23T11:45:47;7.60;99.90
17619;DHT22;8928;51.678;6.074;2024-02-23T11:48:34;7.60;99.90
17619;DHT22;8928;51.678;6.074;2024-02-23T11:51:23;7.60;99.90
17619;DHT22;8928;51.678;6.074;2024-02-23T11:54:13;7.60;99.90
17619;DHT22;8928;51.678;6.074;2024-02-23T11:57:01;7.60;99.90
17619;DHT22;8928;51.678;6.074;2024-02-23T11:59:50;7.60;99.90
17619;DHT22;8928;51.678;6.074;2024-02-23T12:02:37;7.50;99.90
17619;DHT22;8928;51.678;6.074;2024-02-23T12:05:25;7.50;99.90
17619;DHT22;8928;51.678;6.074;2024-02-23T12:08:14;7.30;99.90
17619;DHT22;8928;51.678;6.074;2024-02-23T12:11:02;7.30;99.90
17619;DHT22;8928;51.678;6.074;2024-02-23T12:13:49;7.20;99.90
17619;DHT22;8928;51.678;6.074;2024-02-23T13:29:07;8.70;99.90
17619;DHT22;8928;51.678;6.074;2024-02-23T13:31:54;8.90;99.90
17619;DHT22;8928;51.678;6.074;2024-02-23T13:34:41;9.00;99.90
17619;DHT22;8928;51.678;6.074;2024-02-23T13:37:28;9.10;99.90
17619;DHT22;8928;51.678;6.074;2024-02-23T13:40:15;9.10;99.90
17619;DHT22;8928;51.678;6.074;2024-02-23T13:43:03;8.90;99.90
17619;DHT22;8928;51.678;6.074;2024-02-23T14:47:36;8.20;99.90
17619;DHT22;8928;51.678;6.074;2024-02-23T14:58:21;7.80;99.90
17619;DHT22;8928;51.678;6.074;2024-02-23T15:01:09;7.80;99.90
17619;DHT22;8928;51.678;6.074;2024-02-23T15:03:57;7.80;99.90
17619;DHT22;8928;51.678;6.074;2024-02-23T15:06:44;7.80;99.90
17619;DHT22;8928;51.678;6.074;2024-02-23T15:09:32;8.00;99.90
17619;DHT22;8928;51.678;6.074;2024-02-23T15:12:19;8.70;99.90
17619;DHT22;8928;51.678;6.074;2024-02-23T15:15:08;10.40;99.90
17619;DHT22;8928;51.678;6.074;2024-02-23T15:21:35;10.40;99.90
17619;DHT22;8928;51.678;6.074;2024-02-23T15:24:26;9.90;99.90
17619;DHT22;8928;51.678;6.074;2024-02-23T15:27:13;10.10;99.90
17619;DHT22;8928;51.678;6.074;2024-02-23T15:30:00;11.10;99.90
17619;DHT22;8928;51.678;6.074;2024-02-23T15:32:47;14.10;99.90
17619;DHT22;8928;51.678;6.074;2024-02-23T15:38:26;12.90;99.90
17619;DHT22;8928;51.678;6.074;2024-02-23T15:43:13;11.90;99.90
17619;DHT22;8928;51.678;6.074;2024-02-23T15:46:29;10.50;99.90
17619;DHT22;8928;51.678;6.074;2024-02-23T15:53:54;8.90;99.90
17619;DHT22;8928;51.678;6.074;2024-02-23T15:59:42;8.40;99.90
17619;DHT22;8928;51.678;6.074;2024-02-23T16:02:58;8.20;99.90
17619;DHT22;8928;51.678;6.074;2024-02-23T16:06:14;8.10;99.90
17619;DHT22;8928;51.678;6.074;2024-02-23T16:09:16;7.90;99.90
17619;DHT22;8928;51.678;6.074;2024-02-23T16:12:06;7.80;99.90
17619;DHT22;8928;51.678;6.074;2024-02-23T16:14:56;7.70;99.90
17619;DHT22;8928;51.678;6.074;2024-02-23T16:17:43;7.60;99.90
17619;DHT22;8928;51.678;6.074;2024-02-23T16:20:30;7.50;99.90
17619;DHT22;8928;51.678;6.074;2024-02-23T16:23:18;7.40;99.90
17619;DHT22;8928;51.678;6.074;2024-02-23T16:26:52;7.40;99.90
17619;DHT22;8928;51.678;6.074;2024-02-23T16:30:26;7.40;99.90
17619;DHT22;8928;51.678;6.074;2024-02-23T16:33:39;7.40;99.90
17619;DHT22;8928;51.678;6.074;2024-02-23T16:37:00;7.20;99.90
17619;DHT22;8928;51.678;6.074;2024-02-23T16:40:34;7.10;99.90
17619;DHT22;8928;51.678;6.074;2024-02-23T16:43:36;6.70;99.90
17619;DHT22;8928;51.678;6.074;2024-02-23T16:46:55;6.50;99.90
17619;DHT22;8928;51.678;6.074;2024-02-23T16:50:02;6.20;99.90
17619;DHT22;8928;51.678;6.074;2024-02-23T16:53:33;6.10;99.90
17619;DHT22;8928;51.678;6.074;2024-02-23T16:56:43;6.00;99.90
17619;DHT22;8928;51.678;6.074;2024-02-23T16:59:46;5.90;99.90
17619;DHT22;8928;51.678;6.074;2024-02-23T17:03:03;5.90;99.90
17619;DHT22;8928;51.678;6.074;2024-02-23T17:06:21;5.80;99.90
17619;DHT22;8928;51.678;6.074;2024-02-23T17:09:38;5.80;99.90
17619;DHT22;8928;51.678;6.074;2024-02-23T17:12:29;5.80;99.90
17619;DHT22;8928;51.678;6.074;2024-02-23T17:15:16;5.70;99.90
17619;DHT22;8928;51.678;6.074;2024-02-23T17:18:05;5.70;99.90
17619;DHT22;8928;51.678;6.074;2024-02-23T17:20:52;5.50;99.90
17619;DHT22;8928;51.678;6.074;2024-02-23T17:23:39;5.50;99.90
17619;DHT22;8928;51.678;6.074;2024-02-23T17:26:26;5.60;99.90
17619;DHT22;8928;51.678;6.074;2024-02-23T17:29:14;5.70;99.90
17619;DHT22;8928;51.678;6.074;2024-02-23T17:32:01;5.70;99.90
17619;DHT22;8928;51.678;6.074;2024-02-23T17:34:49;5.80;99.90
17619;DHT22;8928;51.678;6.074;2024-02-23T17:37:36;5.90;99.90
17619;DHT22;8928;51.678;6.074;2024-02-23T17:40:24;6.00;99.90
17619;DHT22;8928;51.678;6.074;2024-02-23T17:43:11;6.00;99.90
17619;DHT22;8928;51.678;6.074;2024-02-23T18:03:42;6.00;99.90
17619;DHT22;8928;51.678;6.074;2024-02-23T18:07:14;5.80;99.90
17619;DHT22;8928;51.678;6.074;2024-02-23T18:10:53;5.70;99.90
17619;DHT22;8928;51.678;6.074;2024-02-23T18:18:06;5.70;99.90
17619;DHT22;8928;51.678;6.074;2024-02-23T18:24:39;5.70;99.90
17619;DHT22;8928;51.678;6.074;2024-02-23T18:27:27;5.60;99.90
17619;DHT22;8928;51.678;6.074;2024-02-23T18:30:14;5.60;99.90
17619;DHT22;8928;51.678;6.074;2024-02-23T18:33:03;5.50;99.90
17619;DHT22;8928;51.678;6.074;2024-02-23T18:35:51;5.50;99.90
17619;DHT22;8928;51.678;6.074;2024-02-23T18:38:38;5.40;99.90
17619;DHT22;8928;51.678;6.074;2024-02-23T18:41:25;5.40;99.90
17619;DHT22;8928;51.678;6.074;2024-02-23T18:44:12;5.40;99.90
17619;DHT22;8928;51.678;6.074;2024-02-23T19:25:04;4.50;99.90
17619;DHT22;8928;51.678;6.074;2024-02-23T19:47:32;5.50;99.90
17619;DHT22;8928;51.678;6.074;2024-02-23T19:50:21;5.60;99.90
17619;DHT22;8928;51.678;6.074;2024-02-23T19:53:08;5.60;99.90
17619;DHT22;8928;51.678;6.074;2024-02-23T20:01:06;5.70;99.90
17619;DHT22;8928;51.678;6.074;2024-02-23T20:03:54;5.60;99.90
17619;DHT22;8928;51.678;6.074;2024-02-23T20:34:30;5.50;99.90
17619;DHT22;8928;51.678;6.074;2024-02-23T20:37:17;5.40;99.90
17619;DHT22;8928;51.678;6.074;2024-02-23T20:40:05;5.30;99.90
17619;DHT22;8928;51.678;6.074;2024-02-23T20:42:54;5.20;99.90
17619;DHT22;8928;51.678;6.074;2024-02-23T22:03:07;3.90;99.90
17619;DHT22;8928;51.678;6.074;2024-02-23T22:05:56;4.20;99.90
17619;DHT22;8928;51.678;6.074;2024-02-23T22:08:44;4.30;99.90
17619;DHT22;8928;51.678;6.074;2024-02-23T22:11:31;4.30;99.90
17619;DHT22;8928;51.678;6.074;2024-02-23T22:14:18;4.30;99.90
17619;DHT22;8928;51.678;6.074;2024-02-23T22:17:05;4.20;99.90
17619;DHT22;8928;51.678;6.074;2024-02-23T22:19:54;4.10;99.90
17619;DHT22;8928;51.678;6.074;2024-02-23T22:22:41;4.00;99.90
17619;DHT22;8928;51.678;6.074;2024-02-23T22:57:25;3.20;99.90
17619;DHT22;8928;51.678;6.074;2024-02-23T23:00:12;3.10;99.90
17619;DHT22;8928;51.678;6.074;2024-02-23T23:03:01;3.00;99.90
17619;DHT22;8928;51.678;6.074;2024-02-23T23:57:59;2.00;99.90
